Aeroporto :
LOGIN :

Iscrizione | Disclaimer

   EN    FR    IT 

 










Sommario :    VFR   VFR Marginale   IFR   IFR Intensivo   IFR Molto Intensivo
Visibilità : 
Base nubi : 
>= 8 km
>= 3000ft
5 / 8 km
1000 / 3000 ft
1500m / 5 km
500 / 1000 ft
800 / 1500m
200 / 500 ft
< 800m
< 200 ft
Simboli :   Temporali  Nebbia  Neve Forte  Precipitazioni Forti  Vento > 20 kt
SIGMETs :   Varie  Temporali  Ghiacco  Turbolenza  Onda orograficha  Ceneri Vulcaniche






- Altitudine del aeroporto : 2313 ft
- Codice IATA : OHD


LWOH - Ohrid

ULTIMO METAR :
  • 050700Z 09003KT 9999 BKN040 BKN080 17/06 Q1013

METARs OBSOLETI :
  • 050630Z 00000KT 9999 BKN040 BKN080 15/08 Q1013
  • 050600Z 15003KT 9999 BKN040 BKN080 15/09 Q1013
  • 050530Z 02002KT 9999 BKN040 BKN080 14/09 Q1013

TAF TAF LWOH
Valido dal 05 a 06 ore il 06 a 06 ore UTC


050530Z 0506/0606 16008KT 9999 FEW040 SCT090
TEMPO 0512/0518 VRB15KT TSRA FEW030CB BKN040



MetMap, La meteo Aeronautica in un colpo d'occhio ! - Copyright ORBIFLY Dicembre 2007 - Disclaimer

ORBIFLY MET'MAP TEAM :

Programmazione e sviluppo : Alexandra Zaïnal
Concezione : Baudouin d'Aumeries
Aiuto per la programmazione : Marc-Olivier Méhu
Supporto tecnico e logistico : Manuel Goepfert
Aiuto per la traduzione : Arnaldo La Scala

Contatto : metmap@orbifly.com




FONTI E CREDITI :

   NOAA